createdAt,value
2024-04-24T00:02:09.713Z,3.40
2024-04-24T00:04:37.138Z,6.30
2024-04-24T00:07:04.567Z,7.03
2024-04-24T00:09:32.379Z,5.65
2024-04-24T00:11:59.692Z,5.18
2024-04-24T00:14:28.804Z,4.85
2024-04-24T00:16:56.294Z,4.88
2024-04-24T00:19:23.630Z,8.65
2024-04-24T00:21:50.933Z,8.30
2024-04-24T00:24:20.601Z,5.63
2024-04-24T00:26:48.016Z,4.88
2024-04-24T00:29:15.744Z,5.63
2024-04-24T00:31:42.965Z,5.85
2024-04-24T00:34:10.331Z,6.85
2024-04-24T00:36:37.717Z,4.97
2024-04-24T00:39:05.208Z,4.32
2024-04-24T00:41:32.830Z,4.57
2024-04-24T00:44:00.365Z,4.78
2024-04-24T00:46:28.696Z,6.05
2024-04-24T00:48:56.869Z,4.68
2024-04-24T00:51:24.697Z,5.57
2024-04-24T00:53:52.296Z,7.20
2024-04-24T00:56:19.755Z,5.15
2024-04-24T00:58:47.197Z,5.43
2024-04-24T01:01:14.929Z,7.53
2024-04-24T01:03:42.563Z,5.95
2024-04-24T01:06:09.963Z,6.53
2024-04-24T01:08:37.397Z,7.47
2024-04-24T01:11:04.943Z,5.47
2024-04-24T01:13:32.528Z,5.03
2024-04-24T01:16:19.148Z,4.88
2024-04-24T01:18:50.442Z,5.20
2024-04-24T01:21:17.967Z,6.25
2024-04-24T01:23:59.998Z,6.13
2024-04-24T01:26:51.968Z,4.80
2024-04-24T01:29:19.660Z,5.82
2024-04-24T01:31:47.131Z,5.40
2024-04-24T01:34:14.601Z,5.22
2024-04-24T01:36:41.876Z,7.85
2024-04-24T01:39:09.211Z,5.85
2024-04-24T01:41:36.451Z,5.35
2024-04-24T01:44:04.056Z,5.95
2024-04-24T01:46:31.461Z,6.05
2024-04-24T01:48:58.953Z,8.02
2024-04-24T01:51:26.307Z,6.00
2024-04-24T01:53:56.665Z,7.80
2024-04-24T01:56:24.067Z,7.50
2024-04-24T01:58:51.813Z,7.28
2024-04-24T02:01:19.305Z,10.77
2024-04-24T02:03:46.611Z,5.75
2024-04-24T02:06:13.986Z,6.85
2024-04-24T02:08:41.251Z,9.00
2024-04-24T02:11:08.733Z,7.13
2024-04-24T02:13:36.144Z,9.80
2024-04-24T02:16:03.571Z,9.05
2024-04-24T02:18:30.985Z,8.48
2024-04-24T02:20:58.390Z,7.95
2024-04-24T02:23:32.674Z,8.23
2024-04-24T02:26:00.305Z,12.02
2024-04-24T02:28:27.653Z,7.00
2024-04-24T02:30:55.007Z,8.73
2024-04-24T02:33:22.350Z,10.65
2024-04-24T02:35:49.732Z,9.02
2024-04-24T02:38:17.362Z,11.70
2024-04-24T02:40:44.721Z,9.23
2024-04-24T02:43:11.971Z,10.32
2024-04-24T02:45:39.408Z,8.27
2024-04-24T02:48:07.879Z,8.18
2024-04-24T02:50:35.550Z,11.15
2024-04-24T02:53:02.936Z,8.60
2024-04-24T02:55:30.435Z,7.40
2024-04-24T02:57:57.703Z,7.43
2024-04-24T03:00:25.227Z,8.00
2024-04-24T03:02:52.688Z,10.82
2024-04-24T03:05:20.275Z,8.95
2024-04-24T03:07:47.758Z,7.00
2024-04-24T03:10:15.258Z,7.30
2024-04-24T03:12:42.925Z,9.68
2024-04-24T03:15:10.439Z,11.80
2024-04-24T03:17:40.234Z,7.55
2024-04-24T03:20:08.363Z,10.30
2024-04-24T03:22:35.756Z,13.73
2024-04-24T03:25:03.074Z,8.68
2024-04-24T03:27:30.569Z,19.98
2024-04-24T03:29:57.915Z,15.38
2024-04-24T03:32:25.272Z,14.75
2024-04-24T03:34:52.682Z,20.67
2024-04-24T03:37:20.065Z,17.75
2024-04-24T03:39:47.602Z,11.98
2024-04-24T03:42:14.877Z,33.10
2024-04-24T03:44:42.268Z,40.10
2024-04-24T03:47:09.734Z,18.38
2024-04-24T03:49:37.207Z,17.50
2024-04-24T03:52:04.638Z,14.98
2024-04-24T03:54:32.356Z,16.08
2024-04-24T03:56:59.681Z,14.63
2024-04-24T03:59:27.195Z,20.17
2024-04-24T04:01:54.510Z,16.65
2024-04-24T04:04:22.002Z,45.42
2024-04-24T04:06:49.564Z,43.05
2024-04-24T04:09:16.955Z,36.67
2024-04-24T04:11:44.758Z,29.38
2024-04-24T04:14:12.601Z,42.47
2024-04-24T04:16:40.472Z,24.95
2024-04-24T04:19:08.222Z,30.27
2024-04-24T04:21:35.960Z,32.88
2024-04-24T04:24:03.882Z,37.05
2024-04-24T04:26:31.666Z,37.17
2024-04-24T04:28:59.056Z,40.97
2024-04-24T04:31:26.455Z,38.97
2024-04-24T04:33:54.326Z,40.25
2024-04-24T04:36:22.020Z,47.22
2024-04-24T04:38:49.396Z,51.28
2024-04-24T04:41:16.840Z,40.38
2024-04-24T04:43:44.206Z,51.22
2024-04-24T04:46:11.960Z,30.77
2024-04-24T04:48:39.858Z,33.17
2024-04-24T04:51:07.298Z,26.45
2024-04-24T04:53:35.158Z,28.02
2024-04-24T04:56:02.525Z,28.85
2024-04-24T04:58:30.107Z,29.15
2024-04-24T05:00:57.811Z,19.90
2024-04-24T05:03:25.744Z,13.77
2024-04-24T05:05:54.439Z,14.10
2024-04-24T05:08:21.972Z,12.65
2024-04-24T05:10:49.421Z,21.60
2024-04-24T05:13:17.929Z,20.25
2024-04-24T05:15:45.230Z,15.68
2024-04-24T05:18:14.399Z,24.40
2024-04-24T05:20:41.893Z,39.58
2024-04-24T05:23:09.352Z,32.60
2024-04-24T05:25:38.333Z,40.08
2024-04-24T05:28:28.091Z,48.10
2024-04-24T05:30:55.513Z,60.63
2024-04-24T05:33:23.011Z,65.78
2024-04-24T05:35:50.529Z,60.38
2024-04-24T05:38:17.923Z,46.88
2024-04-24T05:40:45.380Z,48.30
2024-04-24T05:43:15.309Z,45.28
2024-04-24T05:45:44.542Z,22.05
2024-04-24T05:48:12.129Z,22.48
2024-04-24T05:50:39.661Z,21.02
2024-04-24T05:53:07.093Z,12.90
2024-04-24T05:55:34.570Z,11.18
2024-04-24T05:58:01.917Z,14.23
2024-04-24T06:00:29.607Z,15.52
2024-04-24T06:02:58.212Z,15.02
2024-04-24T06:05:25.688Z,23.80
2024-04-24T06:07:53.178Z,21.08
2024-04-24T06:10:20.662Z,18.40
2024-04-24T06:12:48.086Z,18.90
2024-04-24T06:15:15.720Z,23.20
2024-04-24T06:17:43.298Z,18.10
2024-04-24T06:20:16.384Z,13.07
2024-04-24T06:22:44.538Z,15.82
2024-04-24T06:25:12.071Z,17.90
2024-04-24T06:27:39.598Z,17.95
2024-04-24T06:30:07.348Z,17.10
2024-04-24T06:32:35.323Z,14.30
2024-04-24T06:35:04.403Z,10.82
2024-04-24T06:37:31.962Z,12.95
2024-04-24T06:39:59.296Z,9.90
2024-04-24T06:42:26.744Z,13.65
2024-04-24T06:44:54.115Z,12.57
2024-04-24T06:47:21.648Z,11.43
2024-04-24T06:49:49.121Z,12.68
2024-04-24T06:52:16.540Z,13.57
2024-04-24T06:54:43.895Z,10.70
2024-04-24T06:57:13.182Z,10.13
2024-04-24T06:59:40.539Z,10.95
2024-04-24T07:02:08.039Z,11.00
2024-04-24T07:04:35.499Z,13.57
2024-04-24T07:07:02.914Z,9.95
2024-04-24T07:09:30.403Z,11.07
2024-04-24T07:11:58.124Z,10.32
2024-04-24T07:14:25.595Z,11.52
2024-04-24T07:16:53.270Z,9.07
2024-04-24T07:19:20.589Z,12.30
2024-04-24T07:21:47.943Z,11.32
2024-04-24T07:24:15.280Z,12.15
2024-04-24T07:26:45.553Z,12.50
2024-04-24T07:29:12.978Z,17.98
2024-04-24T07:31:41.367Z,20.95
2024-04-24T07:34:09.007Z,16.02
2024-04-24T07:36:36.526Z,13.90
2024-04-24T07:39:04.144Z,13.82
2024-04-24T07:41:31.607Z,12.55
2024-04-24T07:43:59.147Z,16.17
2024-04-24T07:46:28.126Z,22.23
2024-04-24T07:48:55.632Z,18.63
2024-04-24T07:51:23.164Z,20.85
2024-04-24T07:53:50.769Z,29.27
2024-04-24T07:56:18.246Z,32.08
2024-04-24T07:58:45.775Z,30.15
2024-04-24T08:01:13.235Z,23.45
2024-04-24T08:03:40.837Z,16.65
2024-04-24T08:06:09.023Z,17.00
2024-04-24T08:08:40.016Z,19.55
2024-04-24T08:11:07.610Z,16.05
2024-04-24T08:13:35.020Z,14.93
2024-04-24T08:16:02.772Z,15.63
2024-04-24T08:18:30.483Z,22.80
2024-04-24T08:20:58.115Z,21.55
2024-04-24T08:23:27.060Z,40.50
2024-04-24T08:25:55.451Z,19.75
2024-04-24T08:28:33.150Z,17.48
2024-04-24T08:31:07.877Z,12.35
2024-04-24T08:33:35.688Z,23.08
2024-04-24T08:36:04.678Z,24.98
2024-04-24T08:38:32.592Z,17.60
2024-04-24T08:41:10.699Z,13.77
2024-04-24T08:43:42.762Z,17.85
2024-04-24T08:46:13.870Z,23.15
2024-04-24T08:48:42.404Z,26.88
2024-04-24T08:51:10.900Z,33.47
2024-04-24T08:53:43.424Z,35.92
2024-04-24T08:56:12.890Z,35.17
2024-04-24T08:58:40.546Z,25.85
2024-04-24T09:01:14.676Z,19.27
2024-04-24T09:06:11.364Z,21.52
2024-04-24T09:08:39.006Z,17.75
2024-04-24T09:11:08.069Z,12.07
2024-04-24T09:13:35.601Z,17.65
2024-04-24T09:16:03.405Z,14.48
2024-04-24T09:18:31.197Z,17.15
2024-04-24T09:20:58.723Z,17.60
2024-04-24T09:23:26.513Z,13.82
2024-04-24T09:25:54.091Z,19.80
2024-04-24T09:28:21.582Z,29.48
2024-04-24T09:30:52.266Z,32.15
2024-04-24T09:33:19.993Z,20.25
2024-04-24T09:35:47.511Z,18.45
2024-04-24T09:38:15.000Z,20.48
2024-04-24T09:40:42.570Z,11.60
2024-04-24T09:43:10.034Z,20.55
2024-04-24T09:45:37.474Z,20.02
2024-04-24T09:48:06.497Z,53.47
2024-04-24T09:50:35.182Z,43.08
2024-04-24T09:53:02.937Z,42.78
2024-04-24T09:55:31.544Z,40.58
2024-04-24T09:57:59.147Z,38.85
2024-04-24T10:00:26.475Z,38.72
2024-04-24T10:02:54.082Z,48.85
2024-04-24T10:05:30.014Z,48.15
2024-04-24T10:08:05.203Z,31.80
2024-04-24T10:10:43.323Z,24.40
2024-04-24T10:13:11.054Z,24.42
2024-04-24T10:15:41.808Z,26.45
2024-04-24T10:18:10.242Z,29.65
2024-04-24T10:20:41.753Z,34.08
2024-04-24T10:23:09.315Z,29.40
2024-04-24T10:25:36.841Z,15.65
2024-04-24T10:28:04.595Z,26.25
2024-04-24T10:30:32.236Z,19.02
2024-04-24T10:32:59.832Z,23.63
2024-04-24T10:35:28.964Z,13.57
2024-04-24T10:37:59.652Z,33.78
2024-04-24T10:40:32.875Z,44.78
2024-04-24T10:43:00.937Z,53.30
2024-04-24T10:45:28.756Z,28.23
2024-04-24T10:47:57.213Z,27.27
2024-04-24T10:50:27.962Z,21.17
2024-04-24T10:52:57.027Z,18.80
2024-04-24T10:55:24.522Z,33.38
2024-04-24T10:57:53.886Z,50.38
2024-04-24T11:00:22.463Z,40.22
2024-04-24T11:02:55.930Z,40.95
2024-04-24T11:05:26.220Z,34.15
2024-04-24T11:08:00.923Z,25.75
2024-04-24T11:10:32.059Z,35.03
2024-04-24T11:12:59.720Z,17.48
2024-04-24T11:15:28.173Z,17.70
2024-04-24T11:17:55.766Z,20.48
2024-04-24T11:20:24.046Z,32.53
2024-04-24T11:22:51.678Z,26.95
2024-04-24T11:25:19.026Z,15.82
2024-04-24T11:27:46.588Z,35.40
2024-04-24T11:30:17.812Z,43.67
2024-04-24T11:32:52.727Z,48.72
2024-04-24T11:35:22.574Z,37.63
2024-04-24T11:37:50.691Z,24.58
2024-04-24T11:40:18.096Z,29.95
2024-04-24T11:42:52.107Z,40.40
2024-04-24T11:45:22.899Z,62.63
2024-04-24T11:47:52.294Z,34.10
2024-04-24T11:50:20.473Z,39.35
2024-04-24T11:52:48.233Z,34.58
2024-04-24T11:55:16.260Z,36.95
2024-04-24T11:57:45.058Z,28.27
2024-04-24T12:00:13.006Z,19.30
2024-04-24T12:02:40.799Z,32.70
2024-04-24T12:05:09.100Z,34.58
2024-04-24T12:07:42.344Z,15.15
2024-04-24T12:10:09.868Z,14.32
2024-04-24T12:12:37.381Z,22.83
2024-04-24T12:15:05.237Z,36.13
2024-04-24T12:17:33.074Z,33.40
2024-04-24T12:20:00.627Z,20.20
2024-04-24T12:22:27.997Z,12.13
2024-04-24T12:24:55.457Z,14.85
2024-04-24T12:27:22.842Z,33.60
2024-04-24T12:29:50.428Z,38.80
2024-04-24T12:32:17.967Z,31.63
2024-04-24T12:34:45.634Z,41.45
2024-04-24T12:37:13.082Z,38.83
2024-04-24T12:39:40.751Z,32.63
2024-04-24T12:42:08.410Z,13.85
2024-04-24T12:44:35.835Z,7.65
2024-04-24T12:47:03.240Z,11.85
2024-04-24T12:49:30.848Z,8.05
2024-04-24T12:51:58.298Z,7.75
2024-04-24T12:54:25.692Z,6.43
2024-04-24T12:56:53.145Z,12.15
2024-04-24T12:59:20.677Z,6.70
2024-04-24T13:01:48.085Z,6.75
2024-04-24T13:04:15.864Z,7.35
2024-04-24T13:06:43.350Z,8.45
2024-04-24T13:09:10.905Z,11.13
2024-04-24T13:11:38.388Z,9.07
2024-04-24T13:14:06.009Z,7.45
2024-04-24T13:16:33.424Z,10.98
2024-04-24T13:19:01.044Z,10.35
2024-04-24T13:21:28.519Z,12.18
2024-04-24T13:23:56.016Z,10.45
2024-04-24T13:26:23.492Z,11.02
2024-04-24T13:28:51.030Z,9.90
2024-04-24T13:31:18.406Z,8.63
2024-04-24T13:33:46.177Z,9.88
2024-04-24T13:36:13.710Z,8.60
2024-04-24T13:38:41.369Z,5.40
2024-04-24T13:41:08.729Z,8.02
2024-04-24T13:43:36.507Z,7.07
2024-04-24T13:46:05.064Z,8.25
2024-04-24T13:48:33.563Z,9.20
2024-04-24T13:51:01.675Z,10.13
2024-04-24T13:53:29.251Z,11.15
2024-04-24T13:55:57.310Z,8.52
2024-04-24T13:58:24.899Z,5.75
2024-04-24T14:00:52.359Z,10.00
2024-04-24T14:03:20.021Z,12.40
2024-04-24T14:05:50.862Z,9.50
2024-04-24T14:08:18.513Z,8.93
2024-04-24T14:10:46.125Z,7.78
2024-04-24T14:13:13.729Z,6.72
2024-04-24T14:15:41.451Z,7.43
2024-04-24T14:18:09.010Z,5.93
2024-04-24T14:20:36.754Z,6.32
2024-04-24T14:23:04.360Z,7.20
2024-04-24T14:25:34.779Z,10.57
2024-04-24T14:28:02.848Z,5.45
2024-04-24T14:30:30.406Z,15.23
2024-04-24T14:32:58.091Z,7.25
2024-04-24T14:35:25.618Z,5.65
2024-04-24T14:37:54.025Z,4.75
2024-04-24T14:40:21.473Z,12.07
2024-04-24T14:42:49.183Z,12.45
2024-04-24T14:45:16.586Z,10.07
2024-04-24T14:47:45.003Z,5.28
2024-04-24T14:50:12.618Z,6.18
2024-04-24T14:52:40.201Z,11.73
2024-04-24T14:55:07.941Z,5.95
2024-04-24T14:57:35.461Z,5.68
2024-04-24T15:00:03.191Z,8.45
2024-04-24T15:02:32.281Z,6.35
2024-04-24T15:04:59.866Z,9.30
2024-04-24T15:07:27.388Z,4.97
2024-04-24T15:09:55.682Z,6.88
2024-04-24T15:12:23.198Z,6.80
2024-04-24T15:14:52.254Z,7.18
2024-04-24T15:17:19.923Z,5.70
2024-04-24T15:19:47.441Z,5.50
2024-04-24T15:22:14.991Z,5.18
2024-04-24T15:24:42.542Z,11.05
2024-04-24T15:27:09.990Z,4.07
2024-04-24T15:29:37.405Z,4.95
2024-04-24T15:32:05.328Z,7.70
2024-04-24T15:34:33.671Z,6.43
2024-04-24T15:37:01.202Z,7.55
2024-04-24T15:39:28.679Z,5.93
2024-04-24T15:41:56.956Z,7.93
2024-04-24T15:44:24.256Z,7.45
2024-04-24T15:46:51.708Z,7.50
2024-04-24T15:49:19.485Z,11.07
2024-04-24T15:51:47.455Z,6.95
2024-04-24T15:54:14.968Z,5.45
2024-04-24T15:56:42.356Z,7.40
2024-04-24T15:59:09.684Z,8.77
2024-04-24T16:01:37.192Z,10.55
2024-04-24T16:04:04.683Z,9.88
2024-04-24T16:06:32.192Z,4.15
2024-04-24T16:09:00.031Z,13.23
2024-04-24T16:11:27.579Z,5.93
2024-04-24T16:13:55.069Z,9.00
2024-04-24T16:16:22.466Z,6.18
2024-04-24T16:18:51.686Z,8.60
2024-04-24T16:21:19.838Z,6.85
2024-04-24T16:23:47.181Z,9.45
2024-04-24T16:26:16.145Z,7.38
2024-04-24T16:28:43.817Z,10.85
2024-04-24T16:31:12.022Z,8.00
2024-04-24T16:33:39.557Z,5.97
2024-04-24T16:36:11.707Z,10.30
2024-04-24T16:38:39.183Z,7.22
2024-04-24T16:41:08.085Z,6.38
2024-04-24T16:43:35.497Z,7.53
2024-04-24T16:46:02.843Z,8.73
2024-04-24T16:48:31.551Z,8.85
2024-04-24T16:50:58.965Z,7.85
2024-04-24T16:53:26.626Z,7.43
2024-04-24T16:55:54.266Z,13.13
2024-04-24T16:58:21.708Z,14.55
2024-04-24T17:00:49.280Z,10.32
2024-04-24T17:03:16.950Z,7.95
2024-04-24T17:05:44.446Z,8.57
2024-04-24T17:08:11.965Z,11.88
2024-04-24T17:10:39.656Z,5.95
2024-04-24T17:13:07.134Z,7.43
2024-04-24T17:15:34.549Z,12.18
2024-04-24T17:18:02.223Z,13.77
2024-04-24T17:20:29.760Z,6.22
2024-04-24T17:22:57.379Z,7.43
2024-04-24T17:25:24.824Z,11.93
2024-04-24T17:27:52.233Z,10.75
2024-04-24T17:30:19.545Z,10.18
2024-04-24T17:32:47.089Z,8.35
2024-04-24T17:35:14.817Z,11.27
2024-04-24T17:37:43.198Z,9.40
2024-04-24T17:40:12.209Z,5.53
2024-04-24T17:42:40.103Z,9.27
2024-04-24T17:45:08.214Z,9.90
2024-04-24T17:47:35.915Z,11.82
2024-04-24T17:50:04.400Z,9.60
2024-04-24T17:52:32.757Z,9.02
2024-04-24T17:55:00.233Z,9.70
2024-04-24T17:57:31.252Z,9.98
2024-04-24T17:59:59.433Z,10.20
2024-04-24T18:02:26.879Z,7.82
2024-04-24T18:04:55.728Z,9.50
2024-04-24T18:07:23.076Z,8.65
2024-04-24T18:09:50.616Z,6.30
2024-04-24T18:12:18.032Z,8.68
2024-04-24T18:14:45.906Z,8.57
2024-04-24T18:17:14.448Z,9.98
2024-04-24T18:19:41.988Z,12.15
2024-04-24T18:22:09.532Z,7.15
2024-04-24T18:24:37.253Z,7.70
2024-04-24T18:27:04.640Z,8.23
2024-04-24T18:29:32.395Z,7.78
2024-04-24T18:32:00.160Z,5.50
2024-04-24T18:34:27.674Z,9.32
2024-04-24T18:36:55.340Z,7.88
2024-04-24T18:39:22.858Z,6.15
2024-04-24T18:41:50.500Z,11.20
2024-04-24T18:44:18.087Z,10.38
2024-04-24T18:46:45.487Z,11.68
2024-04-24T18:49:12.962Z,7.38
2024-04-24T18:51:40.423Z,12.13
2024-04-24T18:54:10.140Z,6.75
2024-04-24T18:56:37.692Z,9.60
2024-04-24T18:59:05.017Z,12.75
2024-04-24T19:01:32.456Z,9.02
2024-04-24T19:04:01.190Z,5.95
2024-04-24T19:06:33.391Z,10.65
2024-04-24T19:09:01.636Z,10.35
2024-04-24T19:11:29.167Z,8.30
2024-04-24T19:13:58.999Z,12.55
2024-04-24T19:16:26.605Z,11.25
2024-04-24T19:18:54.101Z,12.30
2024-04-24T19:21:21.684Z,9.35
2024-04-24T19:23:49.053Z,9.25
2024-04-24T19:26:16.694Z,8.88
2024-04-24T19:28:44.197Z,14.73
2024-04-24T19:31:23.325Z,9.88
2024-04-24T19:33:55.263Z,12.00
2024-04-24T19:36:22.749Z,10.68
2024-04-24T19:38:50.177Z,10.63
2024-04-24T19:41:17.579Z,12.85
2024-04-24T19:43:45.120Z,16.65
2024-04-24T19:46:12.560Z,13.15
2024-04-24T19:48:40.033Z,13.75
2024-04-24T19:51:08.269Z,18.50
2024-04-24T19:53:35.987Z,8.77
2024-04-24T19:56:06.854Z,11.50
2024-04-24T19:58:34.326Z,14.23
2024-04-24T20:01:09.185Z,12.82
2024-04-24T20:03:37.614Z,13.05
2024-04-24T20:06:06.301Z,11.70
2024-04-24T20:08:34.193Z,14.40
2024-04-24T20:11:05.218Z,14.25
2024-04-24T20:13:32.997Z,13.02
2024-04-24T20:16:07.067Z,14.25
2024-04-24T20:21:03.810Z,11.60
2024-04-24T20:23:31.394Z,12.13
2024-04-24T20:25:58.750Z,15.65
2024-04-24T20:28:26.176Z,10.23
2024-04-24T20:30:53.520Z,11.88
2024-04-24T20:33:24.326Z,13.10
2024-04-24T20:35:51.987Z,11.77
2024-04-24T20:38:19.461Z,12.10
2024-04-24T20:40:46.961Z,13.55
2024-04-24T20:43:15.068Z,15.55
2024-04-24T20:45:42.510Z,12.60
2024-04-24T20:48:10.019Z,13.93
2024-04-24T20:50:37.584Z,10.20
2024-04-24T20:53:08.407Z,10.07
2024-04-24T20:55:37.427Z,14.85
2024-04-24T20:58:05.059Z,9.48
2024-04-24T21:00:34.371Z,17.20
2024-04-24T21:03:01.856Z,11.38
2024-04-24T21:05:29.477Z,13.85
2024-04-24T21:07:56.850Z,10.18
2024-04-24T21:10:24.384Z,13.45
2024-04-24T21:12:51.786Z,9.90
2024-04-24T21:15:19.252Z,11.02
2024-04-24T21:17:46.781Z,12.52
2024-04-24T21:20:14.276Z,12.27
2024-04-24T21:22:41.647Z,14.48
2024-04-24T21:25:09.146Z,13.57
2024-04-24T21:27:36.816Z,12.05
2024-04-24T21:30:05.880Z,15.25
2024-04-24T21:32:33.716Z,10.68
2024-04-24T21:35:01.377Z,10.95
2024-04-24T21:37:34.545Z,13.02
2024-04-24T21:40:03.437Z,14.32
2024-04-24T21:42:30.965Z,11.98
2024-04-24T21:44:58.323Z,11.65
2024-04-24T21:47:25.651Z,12.95
2024-04-24T21:49:53.381Z,17.55
2024-04-24T21:52:20.693Z,9.70
2024-04-24T21:54:48.171Z,13.38
2024-04-24T21:57:15.435Z,11.75
2024-04-24T21:59:42.966Z,11.52
2024-04-24T22:02:10.553Z,14.00
2024-04-24T22:04:41.068Z,12.18
2024-04-24T22:07:08.550Z,16.83
2024-04-24T22:09:35.905Z,11.15
2024-04-24T22:12:03.473Z,11.45
2024-04-24T22:14:30.996Z,17.48
2024-04-24T22:17:00.771Z,13.73
2024-04-24T22:19:31.288Z,11.55
2024-04-24T22:21:58.580Z,7.70
2024-04-24T22:24:25.908Z,11.18
2024-04-24T22:26:53.263Z,20.17
2024-04-24T22:29:20.808Z,15.27
2024-04-24T22:32:13.895Z,14.90
2024-04-24T22:34:41.374Z,14.18
2024-04-24T22:37:08.776Z,13.30
2024-04-24T22:39:36.439Z,10.82
2024-04-24T22:42:04.994Z,15.98
2024-04-24T22:44:32.661Z,10.27
2024-04-24T22:47:00.031Z,11.73
2024-04-24T22:49:27.439Z,12.52
2024-04-24T22:51:54.747Z,13.98
2024-04-24T22:54:22.073Z,11.23
2024-04-24T22:56:49.417Z,14.32
2024-04-24T22:59:17.396Z,13.35
2024-04-24T23:01:45.729Z,13.85
2024-04-24T23:04:13.088Z,15.25
2024-04-24T23:06:40.413Z,14.70
2024-04-24T23:09:07.870Z,13.50
2024-04-24T23:11:35.325Z,14.02
2024-04-24T23:14:02.874Z,12.05
2024-04-24T23:16:30.511Z,10.82
2024-04-24T23:19:22.946Z,11.50
2024-04-24T23:21:50.367Z,17.63
2024-04-24T23:24:17.758Z,16.85
2024-04-24T23:26:49.176Z,14.30
2024-04-24T23:29:16.750Z,17.35
2024-04-24T23:31:44.155Z,15.20
2024-04-24T23:34:11.670Z,12.77
2024-04-24T23:36:38.982Z,17.80
2024-04-24T23:39:06.432Z,15.63
2024-04-24T23:41:33.736Z,16.90
2024-04-24T23:44:01.478Z,17.05
2024-04-24T23:46:28.831Z,17.13
2024-04-24T23:48:56.273Z,22.33
2024-04-24T23:51:23.597Z,15.60
2024-04-24T23:53:50.937Z,20.42
2024-04-24T23:56:18.242Z,15.57
2024-04-24T23:58:45.764Z,14.57
